sensor_id;sensor_type;location;lat;lon;timestamp;P1;durP1;ratioP1;P2;durP2;ratioP2
5787;SDS011;2920;48.158;12.254;2024-03-07T00:01:56;16.70;;;8.32;;
5787;SDS011;2920;48.158;12.254;2024-03-07T00:04:22;13.52;;;7.57;;
5787;SDS011;2920;48.158;12.254;2024-03-07T00:06:47;14.10;;;8.02;;
5787;SDS011;2920;48.158;12.254;2024-03-07T00:09:13;16.65;;;8.05;;
5787;SDS011;2920;48.158;12.254;2024-03-07T00:11:40;16.33;;;8.65;;
5787;SDS011;2920;48.158;12.254;2024-03-07T00:14:05;13.20;;;7.50;;
5787;SDS011;2920;48.158;12.254;2024-03-07T00:16:31;15.18;;;8.15;;
5787;SDS011;2920;48.158;12.254;2024-03-07T00:18:58;15.52;;;8.05;;
5787;SDS011;2920;48.158;12.254;2024-03-07T00:21:23;16.65;;;7.85;;
5787;SDS011;2920;48.158;12.254;2024-03-07T00:23:49;14.88;;;8.30;;
5787;SDS011;2920;48.158;12.254;2024-03-07T00:26:14;17.02;;;9.15;;
5787;SDS011;2920;48.158;12.254;2024-03-07T00:28:39;16.52;;;8.77;;
5787;SDS011;2920;48.158;12.254;2024-03-07T00:31:05;13.80;;;7.78;;
5787;SDS011;2920;48.158;12.254;2024-03-07T00:33:32;16.98;;;8.70;;
5787;SDS011;2920;48.158;12.254;2024-03-07T00:35:58;15.48;;;7.70;;
5787;SDS011;2920;48.158;12.254;2024-03-07T00:38:23;15.40;;;7.97;;
5787;SDS011;2920;48.158;12.254;2024-03-07T00:40:48;14.30;;;8.10;;
5787;SDS011;2920;48.158;12.254;2024-03-07T00:43:14;15.77;;;8.05;;
5787;SDS011;2920;48.158;12.254;2024-03-07T00:45:40;11.75;;;7.13;;
5787;SDS011;2920;48.158;12.254;2024-03-07T00:48:05;16.25;;;9.18;;
5787;SDS011;2920;48.158;12.254;2024-03-07T00:50:30;13.30;;;8.10;;
5787;SDS011;2920;48.158;12.254;2024-03-07T00:52:57;14.70;;;8.30;;
5787;SDS011;2920;48.158;12.254;2024-03-07T00:55:22;11.57;;;7.63;;
5787;SDS011;2920;48.158;12.254;2024-03-07T00:57:48;14.52;;;7.80;;
5787;SDS011;2920;48.158;12.254;2024-03-07T01:00:13;14.38;;;8.48;;
5787;SDS011;2920;48.158;12.254;2024-03-07T01:02:42;16.70;;;9.35;;
5787;SDS011;2920;48.158;12.254;2024-03-07T01:05:11;14.27;;;8.68;;
5787;SDS011;2920;48.158;12.254;2024-03-07T01:07:38;13.38;;;7.60;;
5787;SDS011;2920;48.158;12.254;2024-03-07T01:10:05;17.08;;;9.30;;
5787;SDS011;2920;48.158;12.254;2024-03-07T01:12:31;14.35;;;8.82;;
5787;SDS011;2920;48.158;12.254;2024-03-07T01:14:59;15.60;;;8.48;;
5787;SDS011;2920;48.158;12.254;2024-03-07T01:17:25;16.15;;;8.25;;
5787;SDS011;2920;48.158;12.254;2024-03-07T01:19:51;16.38;;;8.48;;
5787;SDS011;2920;48.158;12.254;2024-03-07T01:22:16;16.20;;;9.10;;
5787;SDS011;2920;48.158;12.254;2024-03-07T01:24:41;16.95;;;8.50;;
5787;SDS011;2920;48.158;12.254;2024-03-07T01:27:06;15.07;;;9.40;;
5787;SDS011;2920;48.158;12.254;2024-03-07T01:29:32;17.30;;;9.63;;
5787;SDS011;2920;48.158;12.254;2024-03-07T01:31:57;16.90;;;8.02;;
5787;SDS011;2920;48.158;12.254;2024-03-07T01:34:23;15.88;;;8.20;;
5787;SDS011;2920;48.158;12.254;2024-03-07T01:36:48;16.38;;;9.40;;
5787;SDS011;2920;48.158;12.254;2024-03-07T01:39:13;16.58;;;8.70;;
5787;SDS011;2920;48.158;12.254;2024-03-07T01:41:39;15.98;;;8.55;;
5787;SDS011;2920;48.158;12.254;2024-03-07T01:44:05;19.88;;;9.90;;
5787;SDS011;2920;48.158;12.254;2024-03-07T01:46:32;19.13;;;9.43;;
5787;SDS011;2920;48.158;12.254;2024-03-07T01:48:58;14.10;;;8.68;;
5787;SDS011;2920;48.158;12.254;2024-03-07T01:51:23;17.58;;;9.23;;
5787;SDS011;2920;48.158;12.254;2024-03-07T01:53:49;17.58;;;8.23;;
5787;SDS011;2920;48.158;12.254;2024-03-07T01:56:14;17.60;;;9.77;;
5787;SDS011;2920;48.158;12.254;2024-03-07T01:58:40;17.55;;;9.18;;
5787;SDS011;2920;48.158;12.254;2024-03-07T02:01:06;17.63;;;9.55;;
5787;SDS011;2920;48.158;12.254;2024-03-07T02:03:31;20.88;;;9.57;;
5787;SDS011;2920;48.158;12.254;2024-03-07T02:05:56;15.27;;;9.02;;
5787;SDS011;2920;48.158;12.254;2024-03-07T02:08:22;15.57;;;8.45;;
5787;SDS011;2920;48.158;12.254;2024-03-07T02:10:47;14.15;;;8.15;;
5787;SDS011;2920;48.158;12.254;2024-03-07T02:13:13;20.58;;;8.77;;
5787;SDS011;2920;48.158;12.254;2024-03-07T02:15:39;15.30;;;8.55;;
5787;SDS011;2920;48.158;12.254;2024-03-07T02:18:04;17.15;;;8.65;;
5787;SDS011;2920;48.158;12.254;2024-03-07T02:20:30;19.35;;;9.68;;
5787;SDS011;2920;48.158;12.254;2024-03-07T02:22:55;17.02;;;8.43;;
5787;SDS011;2920;48.158;12.254;2024-03-07T02:25:21;18.10;;;9.85;;
5787;SDS011;2920;48.158;12.254;2024-03-07T02:27:46;16.52;;;9.27;;
5787;SDS011;2920;48.158;12.254;2024-03-07T02:30:12;16.55;;;8.60;;
5787;SDS011;2920;48.158;12.254;2024-03-07T02:32:37;14.98;;;8.43;;
5787;SDS011;2920;48.158;12.254;2024-03-07T02:35:03;17.48;;;9.52;;
5787;SDS011;2920;48.158;12.254;2024-03-07T02:37:29;18.02;;;8.13;;
5787;SDS011;2920;48.158;12.254;2024-03-07T02:39:55;17.85;;;9.15;;
5787;SDS011;2920;48.158;12.254;2024-03-07T02:42:20;15.73;;;8.60;;
5787;SDS011;2920;48.158;12.254;2024-03-07T02:44:46;16.20;;;7.75;;
5787;SDS011;2920;48.158;12.254;2024-03-07T02:47:11;17.65;;;8.57;;
5787;SDS011;2920;48.158;12.254;2024-03-07T02:49:37;18.25;;;8.75;;
5787;SDS011;2920;48.158;12.254;2024-03-07T02:52:02;16.30;;;7.32;;
5787;SDS011;2920;48.158;12.254;2024-03-07T02:54:31;14.85;;;8.20;;
5787;SDS011;2920;48.158;12.254;2024-03-07T02:56:57;14.68;;;8.10;;
5787;SDS011;2920;48.158;12.254;2024-03-07T02:59:22;15.90;;;9.02;;
5787;SDS011;2920;48.158;12.254;2024-03-07T03:01:48;15.73;;;8.13;;
5787;SDS011;2920;48.158;12.254;2024-03-07T03:04:13;15.25;;;8.38;;
5787;SDS011;2920;48.158;12.254;2024-03-07T03:06:39;15.90;;;8.50;;
5787;SDS011;2920;48.158;12.254;2024-03-07T03:09:04;14.40;;;7.38;;
5787;SDS011;2920;48.158;12.254;2024-03-07T03:11:30;12.90;;;7.38;;
5787;SDS011;2920;48.158;12.254;2024-03-07T03:13:55;17.38;;;8.60;;
5787;SDS011;2920;48.158;12.254;2024-03-07T03:16:20;17.50;;;8.48;;
5787;SDS011;2920;48.158;12.254;2024-03-07T03:18:46;16.38;;;8.25;;
5787;SDS011;2920;48.158;12.254;2024-03-07T03:21:13;19.30;;;9.77;;
5787;SDS011;2920;48.158;12.254;2024-03-07T03:23:40;16.65;;;8.05;;
5787;SDS011;2920;48.158;12.254;2024-03-07T03:26:05;16.38;;;7.97;;
5787;SDS011;2920;48.158;12.254;2024-03-07T03:28:31;17.10;;;9.40;;
5787;SDS011;2920;48.158;12.254;2024-03-07T03:30:57;18.25;;;8.75;;
5787;SDS011;2920;48.158;12.254;2024-03-07T03:33:22;16.45;;;7.82;;
5787;SDS011;2920;48.158;12.254;2024-03-07T03:35:47;15.20;;;9.07;;
5787;SDS011;2920;48.158;12.254;2024-03-07T03:38:13;18.80;;;9.27;;
5787;SDS011;2920;48.158;12.254;2024-03-07T03:40:38;17.90;;;9.30;;
5787;SDS011;2920;48.158;12.254;2024-03-07T03:43:04;16.35;;;8.10;;
5787;SDS011;2920;48.158;12.254;2024-03-07T03:45:30;15.07;;;8.02;;
5787;SDS011;2920;48.158;12.254;2024-03-07T03:47:58;16.15;;;7.82;;
5787;SDS011;2920;48.158;12.254;2024-03-07T03:50:24;15.85;;;7.97;;
5787;SDS011;2920;48.158;12.254;2024-03-07T03:52:49;16.45;;;9.43;;
5787;SDS011;2920;48.158;12.254;2024-03-07T03:55:15;18.45;;;8.90;;
5787;SDS011;2920;48.158;12.254;2024-03-07T03:57:41;19.05;;;9.02;;
5787;SDS011;2920;48.158;12.254;2024-03-07T04:00:08;14.65;;;7.65;;
5787;SDS011;2920;48.158;12.254;2024-03-07T04:02:47;16.63;;;8.50;;
5787;SDS011;2920;48.158;12.254;2024-03-07T04:05:13;16.42;;;8.23;;
5787;SDS011;2920;48.158;12.254;2024-03-07T04:07:39;17.73;;;8.88;;
5787;SDS011;2920;48.158;12.254;2024-03-07T04:10:05;19.55;;;9.48;;
5787;SDS011;2920;48.158;12.254;2024-03-07T04:12:37;16.77;;;9.07;;
5787;SDS011;2920;48.158;12.254;2024-03-07T04:15:07;17.23;;;8.30;;
5787;SDS011;2920;48.158;12.254;2024-03-07T04:17:34;17.70;;;8.90;;
5787;SDS011;2920;48.158;12.254;2024-03-07T04:20:03;18.42;;;8.80;;
5787;SDS011;2920;48.158;12.254;2024-03-07T04:22:33;19.35;;;9.13;;
5787;SDS011;2920;48.158;12.254;2024-03-07T04:24:59;17.35;;;8.32;;
5787;SDS011;2920;48.158;12.254;2024-03-07T04:27:24;20.35;;;9.32;;
5787;SDS011;2920;48.158;12.254;2024-03-07T04:29:51;16.25;;;8.20;;
5787;SDS011;2920;48.158;12.254;2024-03-07T04:32:16;15.48;;;9.40;;
5787;SDS011;2920;48.158;12.254;2024-03-07T04:34:42;22.15;;;9.18;;
5787;SDS011;2920;48.158;12.254;2024-03-07T04:37:08;18.55;;;8.63;;
5787;SDS011;2920;48.158;12.254;2024-03-07T04:39:34;20.15;;;8.75;;
5787;SDS011;2920;48.158;12.254;2024-03-07T04:42:00;19.85;;;9.18;;
5787;SDS011;2920;48.158;12.254;2024-03-07T04:44:26;17.75;;;9.63;;
5787;SDS011;2920;48.158;12.254;2024-03-07T04:46:55;18.92;;;9.35;;
5787;SDS011;2920;48.158;12.254;2024-03-07T04:49:22;17.67;;;8.73;;
5787;SDS011;2920;48.158;12.254;2024-03-07T04:51:49;19.80;;;9.05;;
5787;SDS011;2920;48.158;12.254;2024-03-07T04:54:15;18.33;;;9.23;;
5787;SDS011;2920;48.158;12.254;2024-03-07T04:56:41;17.20;;;9.05;;
5787;SDS011;2920;48.158;12.254;2024-03-07T04:59:06;16.95;;;8.73;;
5787;SDS011;2920;48.158;12.254;2024-03-07T05:01:32;17.40;;;8.80;;
5787;SDS011;2920;48.158;12.254;2024-03-07T05:03:57;18.58;;;8.90;;
5787;SDS011;2920;48.158;12.254;2024-03-07T05:06:22;17.02;;;9.10;;
5787;SDS011;2920;48.158;12.254;2024-03-07T05:08:48;16.30;;;8.55;;
5787;SDS011;2920;48.158;12.254;2024-03-07T05:11:13;16.83;;;8.52;;
5787;SDS011;2920;48.158;12.254;2024-03-07T05:13:38;23.38;;;9.00;;
5787;SDS011;2920;48.158;12.254;2024-03-07T05:16:04;20.90;;;9.48;;
5787;SDS011;2920;48.158;12.254;2024-03-07T05:18:29;15.80;;;7.85;;
5787;SDS011;2920;48.158;12.254;2024-03-07T05:20:54;19.23;;;8.60;;
5787;SDS011;2920;48.158;12.254;2024-03-07T05:23:20;20.42;;;9.20;;
5787;SDS011;2920;48.158;12.254;2024-03-07T05:25:45;18.52;;;9.88;;
5787;SDS011;2920;48.158;12.254;2024-03-07T05:28:11;16.80;;;8.82;;
5787;SDS011;2920;48.158;12.254;2024-03-07T05:30:36;18.73;;;8.65;;
5787;SDS011;2920;48.158;12.254;2024-03-07T05:33:02;18.00;;;9.25;;
5787;SDS011;2920;48.158;12.254;2024-03-07T05:35:27;19.33;;;9.60;;
5787;SDS011;2920;48.158;12.254;2024-03-07T05:37:54;19.38;;;9.30;;
5787;SDS011;2920;48.158;12.254;2024-03-07T05:40:21;20.52;;;10.27;;
5787;SDS011;2920;48.158;12.254;2024-03-07T05:42:47;18.70;;;10.15;;
5787;SDS011;2920;48.158;12.254;2024-03-07T05:45:12;22.50;;;10.55;;
5787;SDS011;2920;48.158;12.254;2024-03-07T05:47:39;19.42;;;9.60;;
5787;SDS011;2920;48.158;12.254;2024-03-07T05:50:05;21.17;;;9.82;;
5787;SDS011;2920;48.158;12.254;2024-03-07T05:52:32;27.27;;;11.10;;
5787;SDS011;2920;48.158;12.254;2024-03-07T05:54:57;24.48;;;10.10;;
5787;SDS011;2920;48.158;12.254;2024-03-07T05:57:23;19.63;;;9.40;;
5787;SDS011;2920;48.158;12.254;2024-03-07T05:59:48;19.88;;;10.20;;
5787;SDS011;2920;48.158;12.254;2024-03-07T06:02:13;25.80;;;12.25;;
5787;SDS011;2920;48.158;12.254;2024-03-07T06:04:40;24.77;;;12.70;;
5787;SDS011;2920;48.158;12.254;2024-03-07T06:07:07;23.48;;;11.65;;
5787;SDS011;2920;48.158;12.254;2024-03-07T06:09:33;25.38;;;12.00;;
5787;SDS011;2920;48.158;12.254;2024-03-07T06:11:59;26.67;;;13.30;;
5787;SDS011;2920;48.158;12.254;2024-03-07T06:14:24;27.05;;;13.25;;
5787;SDS011;2920;48.158;12.254;2024-03-07T06:16:49;30.17;;;13.43;;
5787;SDS011;2920;48.158;12.254;2024-03-07T06:19:14;23.92;;;11.95;;
5787;SDS011;2920;48.158;12.254;2024-03-07T06:21:40;27.77;;;12.43;;
5787;SDS011;2920;48.158;12.254;2024-03-07T06:24:08;24.45;;;11.15;;
5787;SDS011;2920;48.158;12.254;2024-03-07T06:26:37;24.45;;;11.15;;
5787;SDS011;2920;48.158;12.254;2024-03-07T06:29:09;20.40;;;10.27;;
5787;SDS011;2920;48.158;12.254;2024-03-07T06:31:36;20.48;;;10.05;;
5787;SDS011;2920;48.158;12.254;2024-03-07T06:34:01;22.90;;;12.85;;
5787;SDS011;2920;48.158;12.254;2024-03-07T06:36:27;25.17;;;12.20;;
5787;SDS011;2920;48.158;12.254;2024-03-07T06:38:53;23.65;;;11.27;;
5787;SDS011;2920;48.158;12.254;2024-03-07T06:41:18;21.63;;;10.98;;
5787;SDS011;2920;48.158;12.254;2024-03-07T06:43:43;23.65;;;11.90;;
5787;SDS011;2920;48.158;12.254;2024-03-07T06:46:12;25.42;;;10.38;;
5787;SDS011;2920;48.158;12.254;2024-03-07T06:48:40;24.95;;;11.43;;
5787;SDS011;2920;48.158;12.254;2024-03-07T06:51:06;26.88;;;12.93;;
5787;SDS011;2920;48.158;12.254;2024-03-07T06:53:31;22.42;;;11.93;;
5787;SDS011;2920;48.158;12.254;2024-03-07T06:55:57;34.75;;;15.65;;
5787;SDS011;2920;48.158;12.254;2024-03-07T06:58:22;43.75;;;18.30;;
5787;SDS011;2920;48.158;12.254;2024-03-07T07:00:48;39.15;;;18.73;;
5787;SDS011;2920;48.158;12.254;2024-03-07T07:03:16;45.97;;;20.43;;
5787;SDS011;2920;48.158;12.254;2024-03-07T07:05:43;34.22;;;16.40;;
5787;SDS011;2920;48.158;12.254;2024-03-07T07:08:09;40.33;;;18.80;;
5787;SDS011;2920;48.158;12.254;2024-03-07T07:10:35;39.25;;;16.95;;
5787;SDS011;2920;48.158;12.254;2024-03-07T07:13:01;42.47;;;19.92;;
5787;SDS011;2920;48.158;12.254;2024-03-07T07:15:29;38.55;;;17.10;;
5787;SDS011;2920;48.158;12.254;2024-03-07T07:17:54;37.35;;;16.83;;
5787;SDS011;2920;48.158;12.254;2024-03-07T07:20:20;37.55;;;17.33;;
5787;SDS011;2920;48.158;12.254;2024-03-07T07:22:46;34.72;;;15.48;;
5787;SDS011;2920;48.158;12.254;2024-03-07T07:25:13;40.15;;;15.68;;
5787;SDS011;2920;48.158;12.254;2024-03-07T07:27:43;34.25;;;15.10;;
5787;SDS011;2920;48.158;12.254;2024-03-07T07:30:14;36.10;;;16.52;;
5787;SDS011;2920;48.158;12.254;2024-03-07T07:32:42;35.17;;;16.42;;
5787;SDS011;2920;48.158;12.254;2024-03-07T07:35:08;31.42;;;15.07;;
5787;SDS011;2920;48.158;12.254;2024-03-07T07:37:46;31.40;;;15.60;;
5787;SDS011;2920;48.158;12.254;2024-03-07T07:40:16;34.78;;;15.05;;
5787;SDS011;2920;48.158;12.254;2024-03-07T07:42:47;31.60;;;14.57;;
5787;SDS011;2920;48.158;12.254;2024-03-07T07:45:14;48.15;;;16.60;;
5787;SDS011;2920;48.158;12.254;2024-03-07T07:47:41;35.88;;;15.48;;
5787;SDS011;2920;48.158;12.254;2024-03-07T07:50:08;35.97;;;15.38;;
5787;SDS011;2920;48.158;12.254;2024-03-07T07:52:43;34.10;;;15.75;;
5787;SDS011;2920;48.158;12.254;2024-03-07T07:55:12;43.25;;;16.58;;
5787;SDS011;2920;48.158;12.254;2024-03-07T07:57:49;32.38;;;14.80;;
5787;SDS011;2920;48.158;12.254;2024-03-07T08:00:19;35.53;;;16.50;;
5787;SDS011;2920;48.158;12.254;2024-03-07T08:05:14;33.03;;;15.18;;
5787;SDS011;2920;48.158;12.254;2024-03-07T08:07:42;36.17;;;16.42;;
5787;SDS011;2920;48.158;12.254;2024-03-07T08:10:08;34.00;;;14.15;;
5787;SDS011;2920;48.158;12.254;2024-03-07T08:12:34;31.48;;;15.07;;
5787;SDS011;2920;48.158;12.254;2024-03-07T08:15:02;29.85;;;14.50;;
5787;SDS011;2920;48.158;12.254;2024-03-07T08:17:28;28.48;;;14.32;;
5787;SDS011;2920;48.158;12.254;2024-03-07T08:19:53;33.60;;;15.50;;
5787;SDS011;2920;48.158;12.254;2024-03-07T08:22:18;29.80;;;14.02;;
5787;SDS011;2920;48.158;12.254;2024-03-07T08:24:44;27.80;;;14.52;;
5787;SDS011;2920;48.158;12.254;2024-03-07T08:27:10;33.53;;;15.60;;
5787;SDS011;2920;48.158;12.254;2024-03-07T08:29:36;29.50;;;13.48;;
5787;SDS011;2920;48.158;12.254;2024-03-07T08:32:01;33.08;;;15.95;;
5787;SDS011;2920;48.158;12.254;2024-03-07T08:34:28;31.85;;;14.25;;
5787;SDS011;2920;48.158;12.254;2024-03-07T08:36:53;30.88;;;14.77;;
5787;SDS011;2920;48.158;12.254;2024-03-07T08:39:18;32.03;;;15.13;;
5787;SDS011;2920;48.158;12.254;2024-03-07T08:41:44;32.90;;;15.40;;
5787;SDS011;2920;48.158;12.254;2024-03-07T08:44:11;32.90;;;14.80;;
5787;SDS011;2920;48.158;12.254;2024-03-07T08:46:38;32.47;;;15.05;;
5787;SDS011;2920;48.158;12.254;2024-03-07T08:49:03;34.60;;;16.25;;
5787;SDS011;2920;48.158;12.254;2024-03-07T08:51:30;32.00;;;13.93;;
5787;SDS011;2920;48.158;12.254;2024-03-07T08:53:55;31.95;;;15.43;;
5787;SDS011;2920;48.158;12.254;2024-03-07T08:56:20;34.40;;;15.88;;
5787;SDS011;2920;48.158;12.254;2024-03-07T08:58:47;30.05;;;14.65;;
5787;SDS011;2920;48.158;12.254;2024-03-07T09:01:12;32.63;;;16.23;;
5787;SDS011;2920;48.158;12.254;2024-03-07T09:03:38;34.83;;;16.90;;
5787;SDS011;2920;48.158;12.254;2024-03-07T09:06:03;34.50;;;16.45;;
5787;SDS011;2920;48.158;12.254;2024-03-07T09:08:29;30.80;;;15.77;;
5787;SDS011;2920;48.158;12.254;2024-03-07T09:10:55;36.15;;;16.80;;
5787;SDS011;2920;48.158;12.254;2024-03-07T09:13:21;37.58;;;17.63;;
5787;SDS011;2920;48.158;12.254;2024-03-07T09:15:46;38.20;;;18.17;;
5787;SDS011;2920;48.158;12.254;2024-03-07T09:18:12;34.20;;;16.67;;
5787;SDS011;2920;48.158;12.254;2024-03-07T09:20:37;35.63;;;15.98;;
5787;SDS011;2920;48.158;12.254;2024-03-07T09:23:03;31.20;;;16.77;;
5787;SDS011;2920;48.158;12.254;2024-03-07T09:25:28;36.55;;;17.63;;
5787;SDS011;2920;48.158;12.254;2024-03-07T09:27:58;32.47;;;14.82;;
5787;SDS011;2920;48.158;12.254;2024-03-07T09:30:26;32.78;;;15.57;;
5787;SDS011;2920;48.158;12.254;2024-03-07T09:32:53;35.63;;;16.05;;
5787;SDS011;2920;48.158;12.254;2024-03-07T09:35:22;36.17;;;16.58;;
5787;SDS011;2920;48.158;12.254;2024-03-07T09:37:47;33.00;;;16.17;;
5787;SDS011;2920;48.158;12.254;2024-03-07T09:40:14;32.38;;;15.88;;
5787;SDS011;2920;48.158;12.254;2024-03-07T09:42:46;33.38;;;17.27;;
5787;SDS011;2920;48.158;12.254;2024-03-07T09:45:18;33.17;;;15.52;;
5787;SDS011;2920;48.158;12.254;2024-03-07T09:47:45;32.92;;;16.23;;
5787;SDS011;2920;48.158;12.254;2024-03-07T09:50:18;37.00;;;16.08;;
5787;SDS011;2920;48.158;12.254;2024-03-07T09:52:46;31.77;;;16.50;;
5787;SDS011;2920;48.158;12.254;2024-03-07T09:55:14;32.67;;;16.02;;
5787;SDS011;2920;48.158;12.254;2024-03-07T09:57:40;31.25;;;15.50;;
5787;SDS011;2920;48.158;12.254;2024-03-07T10:00:07;29.35;;;14.38;;
5787;SDS011;2920;48.158;12.254;2024-03-07T10:02:34;30.95;;;14.48;;
5787;SDS011;2920;48.158;12.254;2024-03-07T10:05:01;28.63;;;14.52;;
5787;SDS011;2920;48.158;12.254;2024-03-07T10:07:29;34.78;;;15.23;;
5787;SDS011;2920;48.158;12.254;2024-03-07T10:09:55;30.05;;;14.20;;
5787;SDS011;2920;48.158;12.254;2024-03-07T10:12:22;29.88;;;15.48;;
5787;SDS011;2920;48.158;12.254;2024-03-07T10:14:51;34.55;;;16.00;;
5787;SDS011;2920;48.158;12.254;2024-03-07T10:17:23;35.63;;;16.23;;
5787;SDS011;2920;48.158;12.254;2024-03-07T10:19:51;34.58;;;15.38;;
5787;SDS011;2920;48.158;12.254;2024-03-07T10:22:18;28.98;;;14.23;;
5787;SDS011;2920;48.158;12.254;2024-03-07T10:24:50;29.58;;;15.40;;
5787;SDS011;2920;48.158;12.254;2024-03-07T10:27:19;30.73;;;15.02;;
5787;SDS011;2920;48.158;12.254;2024-03-07T10:29:48;31.77;;;15.35;;
5787;SDS011;2920;48.158;12.254;2024-03-07T10:32:19;31.92;;;15.77;;
5787;SDS011;2920;48.158;12.254;2024-03-07T10:34:44;34.72;;;15.77;;
5787;SDS011;2920;48.158;12.254;2024-03-07T10:37:12;32.63;;;16.70;;
5787;SDS011;2920;48.158;12.254;2024-03-07T10:39:41;33.55;;;15.23;;
5787;SDS011;2920;48.158;12.254;2024-03-07T10:42:07;32.15;;;16.80;;
5787;SDS011;2920;48.158;12.254;2024-03-07T10:44:35;32.92;;;15.73;;
5787;SDS011;2920;48.158;12.254;2024-03-07T10:47:06;30.08;;;14.98;;
5787;SDS011;2920;48.158;12.254;2024-03-07T10:49:33;31.65;;;17.33;;
5787;SDS011;2920;48.158;12.254;2024-03-07T10:52:10;29.30;;;15.55;;
5787;SDS011;2920;48.158;12.254;2024-03-07T10:55:29;37.75;;;18.08;;
5787;SDS011;2920;48.158;12.254;2024-03-07T10:57:52;30.88;;;16.33;;
5787;SDS011;2920;48.158;12.254;2024-03-07T11:00:22;32.60;;;16.75;;
5787;SDS011;2920;48.158;12.254;2024-03-07T11:03:04;34.85;;;18.08;;
5787;SDS011;2920;48.158;12.254;2024-03-07T11:05:33;30.35;;;16.75;;
5787;SDS011;2920;48.158;12.254;2024-03-07T11:08:02;34.72;;;16.67;;
5787;SDS011;2920;48.158;12.254;2024-03-07T11:10:36;33.40;;;16.35;;
5787;SDS011;2920;48.158;12.254;2024-03-07T11:13:02;28.75;;;15.50;;
5787;SDS011;2920;48.158;12.254;2024-03-07T11:15:28;33.75;;;15.88;;
5787;SDS011;2920;48.158;12.254;2024-03-07T11:17:55;31.40;;;15.45;;
5787;SDS011;2920;48.158;12.254;2024-03-07T11:20:27;28.83;;;15.77;;
5787;SDS011;2920;48.158;12.254;2024-03-07T11:22:59;35.10;;;16.73;;
5787;SDS011;2920;48.158;12.254;2024-03-07T11:25:26;33.45;;;15.82;;
5787;SDS011;2920;48.158;12.254;2024-03-07T11:27:52;31.30;;;17.30;;
5787;SDS011;2920;48.158;12.254;2024-03-07T11:30:24;39.42;;;17.02;;
5787;SDS011;2920;48.158;12.254;2024-03-07T11:32:50;32.53;;;16.52;;
5787;SDS011;2920;48.158;12.254;2024-03-07T11:35:18;35.55;;;16.08;;
5787;SDS011;2920;48.158;12.254;2024-03-07T11:37:50;32.58;;;15.98;;
5787;SDS011;2920;48.158;12.254;2024-03-07T11:42:48;26.90;;;14.75;;
5787;SDS011;2920;48.158;12.254;2024-03-07T11:45:14;30.83;;;15.53;;
5787;SDS011;2920;48.158;12.254;2024-03-07T11:47:57;32.80;;;15.88;;
5787;SDS011;2920;48.158;12.254;2024-03-07T11:50:32;28.52;;;15.25;;
5787;SDS011;2920;48.158;12.254;2024-03-07T11:53:00;32.05;;;16.73;;
5787;SDS011;2920;48.158;12.254;2024-03-07T11:55:26;29.48;;;15.23;;
5787;SDS011;2920;48.158;12.254;2024-03-07T11:57:53;26.58;;;14.82;;
5787;SDS011;2920;48.158;12.254;2024-03-07T12:00:19;32.65;;;16.92;;
5787;SDS011;2920;48.158;12.254;2024-03-07T12:02:45;31.17;;;16.27;;
5787;SDS011;2920;48.158;12.254;2024-03-07T12:05:10;33.28;;;18.00;;
5787;SDS011;2920;48.158;12.254;2024-03-07T12:07:40;30.20;;;17.33;;
5787;SDS011;2920;48.158;12.254;2024-03-07T12:10:06;36.38;;;16.30;;
5787;SDS011;2920;48.158;12.254;2024-03-07T12:12:32;30.92;;;16.02;;
5787;SDS011;2920;48.158;12.254;2024-03-07T12:15:03;28.85;;;16.30;;
5787;SDS011;2920;48.158;12.254;2024-03-07T12:17:34;31.20;;;15.57;;
5787;SDS011;2920;48.158;12.254;2024-03-07T12:19:59;35.13;;;17.30;;
5787;SDS011;2920;48.158;12.254;2024-03-07T12:22:27;28.50;;;16.25;;
5787;SDS011;2920;48.158;12.254;2024-03-07T12:25:00;31.30;;;16.30;;
5787;SDS011;2920;48.158;12.254;2024-03-07T12:27:27;31.35;;;16.25;;
5787;SDS011;2920;48.158;12.254;2024-03-07T12:29:53;28.17;;;15.65;;
5787;SDS011;2920;48.158;12.254;2024-03-07T12:32:19;26.15;;;15.18;;
5787;SDS011;2920;48.158;12.254;2024-03-07T12:34:44;25.98;;;14.15;;
5787;SDS011;2920;48.158;12.254;2024-03-07T12:37:11;27.13;;;14.27;;
5787;SDS011;2920;48.158;12.254;2024-03-07T12:39:36;27.33;;;13.02;;
5787;SDS011;2920;48.158;12.254;2024-03-07T12:42:11;27.60;;;12.73;;
5787;SDS011;2920;48.158;12.254;2024-03-07T12:44:43;28.60;;;13.07;;
5787;SDS011;2920;48.158;12.254;2024-03-07T12:47:12;28.40;;;13.35;;
5787;SDS011;2920;48.158;12.254;2024-03-07T12:49:44;26.10;;;12.10;;
5787;SDS011;2920;48.158;12.254;2024-03-07T12:52:10;27.60;;;13.02;;
5787;SDS011;2920;48.158;12.254;2024-03-07T12:54:38;24.30;;;12.10;;
5787;SDS011;2920;48.158;12.254;2024-03-07T12:57:09;24.13;;;12.65;;
5787;SDS011;2920;48.158;12.254;2024-03-07T12:59:35;24.67;;;11.80;;
5787;SDS011;2920;48.158;12.254;2024-03-07T13:02:07;28.40;;;12.73;;
5787;SDS011;2920;48.158;12.254;2024-03-07T13:04:33;27.35;;;12.35;;
5787;SDS011;2920;48.158;12.254;2024-03-07T13:06:58;27.50;;;13.05;;
5787;SDS011;2920;48.158;12.254;2024-03-07T13:09:29;25.98;;;13.25;;
5787;SDS011;2920;48.158;12.254;2024-03-07T13:11:58;23.67;;;12.02;;
5787;SDS011;2920;48.158;12.254;2024-03-07T13:14:25;23.60;;;11.68;;
5787;SDS011;2920;48.158;12.254;2024-03-07T13:16:52;23.33;;;10.60;;
5787;SDS011;2920;48.158;12.254;2024-03-07T13:19:17;22.17;;;11.23;;
5787;SDS011;2920;48.158;12.254;2024-03-07T13:21:46;22.58;;;12.00;;
5787;SDS011;2920;48.158;12.254;2024-03-07T13:24:13;21.38;;;10.30;;
5787;SDS011;2920;48.158;12.254;2024-03-07T13:26:38;18.33;;;10.05;;
5787;SDS011;2920;48.158;12.254;2024-03-07T13:29:04;20.10;;;9.25;;
5787;SDS011;2920;48.158;12.254;2024-03-07T13:31:29;19.48;;;9.70;;
5787;SDS011;2920;48.158;12.254;2024-03-07T13:33:55;17.65;;;9.80;;
5787;SDS011;2920;48.158;12.254;2024-03-07T13:36:20;20.20;;;9.65;;
5787;SDS011;2920;48.158;12.254;2024-03-07T13:38:57;16.27;;;8.55;;
5787;SDS011;2920;48.158;12.254;2024-03-07T13:41:23;17.00;;;8.93;;
5787;SDS011;2920;48.158;12.254;2024-03-07T13:43:50;16.25;;;7.85;;
5787;SDS011;2920;48.158;12.254;2024-03-07T13:46:16;14.38;;;8.32;;
5787;SDS011;2920;48.158;12.254;2024-03-07T13:48:43;16.67;;;8.27;;
5787;SDS011;2920;48.158;12.254;2024-03-07T13:51:09;16.77;;;8.80;;
5787;SDS011;2920;48.158;12.254;2024-03-07T13:53:34;19.20;;;9.38;;
5787;SDS011;2920;48.158;12.254;2024-03-07T14:07:04;18.23;;;8.00;;
5787;SDS011;2920;48.158;12.254;2024-03-07T14:29:12;12.98;;;6.57;;
5787;SDS011;2920;48.158;12.254;2024-03-07T14:31:46;15.18;;;7.15;;
5787;SDS011;2920;48.158;12.254;2024-03-07T14:36:55;16.00;;;6.50;;
5787;SDS011;2920;48.158;12.254;2024-03-07T14:39:22;10.77;;;6.38;;
5787;SDS011;2920;48.158;12.254;2024-03-07T14:41:52;11.77;;;6.78;;
5787;SDS011;2920;48.158;12.254;2024-03-07T14:44:21;11.82;;;6.82;;
5787;SDS011;2920;48.158;12.254;2024-03-07T14:46:48;13.50;;;6.60;;
5787;SDS011;2920;48.158;12.254;2024-03-07T14:49:17;15.07;;;6.00;;
5787;SDS011;2920;48.158;12.254;2024-03-07T14:51:43;11.05;;;5.82;;
5787;SDS011;2920;48.158;12.254;2024-03-07T14:54:09;9.68;;;5.60;;
5787;SDS011;2920;48.158;12.254;2024-03-07T14:56:35;11.52;;;6.07;;
5787;SDS011;2920;48.158;12.254;2024-03-07T14:59:00;11.75;;;5.90;;
5787;SDS011;2920;48.158;12.254;2024-03-07T15:01:28;12.73;;;7.30;;
5787;SDS011;2920;48.158;12.254;2024-03-07T15:03:55;13.95;;;6.38;;
5787;SDS011;2920;48.158;12.254;2024-03-07T15:06:22;10.43;;;5.95;;
5787;SDS011;2920;48.158;12.254;2024-03-07T15:08:47;17.33;;;6.00;;
5787;SDS011;2920;48.158;12.254;2024-03-07T15:11:18;12.20;;;5.72;;
5787;SDS011;2920;48.158;12.254;2024-03-07T15:13:48;9.60;;;5.88;;
5787;SDS011;2920;48.158;12.254;2024-03-07T15:16:14;14.65;;;7.30;;
5787;SDS011;2920;48.158;12.254;2024-03-07T15:18:40;13.32;;;6.50;;